sensor_id;sensor_type;location;lat;lon;timestamp;pressure;altitude;pressure_sealevel;temperature;humidity
66430;BME280;53242;51.694;10.006;2023-11-19T00:00:23;99111.03;;;5.56;100.00
66430;BME280;53242;51.694;10.006;2023-11-19T00:02:46;99115.13;;;5.59;100.00
66430;BME280;53242;51.694;10.006;2023-11-19T00:05:10;99116.69;;;5.68;100.00
66430;BME280;53242;51.694;10.006;2023-11-19T00:07:33;99111.97;;;5.64;100.00
66430;BME280;53242;51.694;10.006;2023-11-19T00:09:56;99106.16;;;5.76;100.00
66430;BME280;53242;51.694;10.006;2023-11-19T00:12:18;99091.91;;;5.79;100.00
66430;BME280;53242;51.694;10.006;2023-11-19T00:14:41;99090.06;;;5.88;100.00
66430;BME280;53242;51.694;10.006;2023-11-19T00:17:03;99099.88;;;5.86;100.00
66430;BME280;53242;51.694;10.006;2023-11-19T00:19:26;99085.47;;;5.90;100.00
66430;BME280;53242;51.694;10.006;2023-11-19T00:21:48;99079.84;;;6.01;100.00
66430;BME280;53242;51.694;10.006;2023-11-19T00:24:11;99075.31;;;5.95;100.00
66430;BME280;53242;51.694;10.006;2023-11-19T00:26:34;99064.78;;;6.03;100.00
66430;BME280;53242;51.694;10.006;2023-11-19T00:28:57;99062.56;;;6.15;100.00
66430;BME280;53242;51.694;10.006;2023-11-19T00:31:20;99049.91;;;6.19;100.00
66430;BME280;53242;51.694;10.006;2023-11-19T00:33:43;99051.38;;;6.21;100.00
66430;BME280;53242;51.694;10.006;2023-11-19T00:36:05;99048.69;;;6.06;100.00
66430;BME280;53242;51.694;10.006;2023-11-19T00:38:28;99039.44;;;6.19;100.00
66430;BME280;53242;51.694;10.006;2023-11-19T00:40:50;99047.75;;;6.22;100.00
66430;BME280;53242;51.694;10.006;2023-11-19T00:43:13;99037.91;;;6.24;100.00
66430;BME280;53242;51.694;10.006;2023-11-19T00:45:36;99029.44;;;6.37;100.00
66430;BME280;53242;51.694;10.006;2023-11-19T00:47:58;99017.34;;;6.36;100.00
66430;BME280;53242;51.694;10.006;2023-11-19T00:50:21;99024.47;;;6.42;100.00
66430;BME280;53242;51.694;10.006;2023-11-19T00:52:45;99015.38;;;6.53;100.00
66430;BME280;53242;51.694;10.006;2023-11-19T00:55:07;99017.09;;;6.61;100.00
66430;BME280;53242;51.694;10.006;2023-11-19T00:57:31;99006.41;;;6.63;100.00
66430;BME280;53242;51.694;10.006;2023-11-19T00:59:55;99003.88;;;6.69;100.00
66430;BME280;53242;51.694;10.006;2023-11-19T01:02:17;99004.88;;;6.83;100.00
66430;BME280;53242;51.694;10.006;2023-11-19T01:04:39;99003.03;;;6.84;100.00
66430;BME280;53242;51.694;10.006;2023-11-19T01:07:02;98998.81;;;6.83;100.00
66430;BME280;53242;51.694;10.006;2023-11-19T01:09:28;98985.72;;;6.83;100.00
66430;BME280;53242;51.694;10.006;2023-11-19T01:11:51;98990.19;;;6.89;100.00
66430;BME280;53242;51.694;10.006;2023-11-19T01:14:13;98993.66;;;6.89;100.00
66430;BME280;53242;51.694;10.006;2023-11-19T01:16:35;98992.81;;;6.89;100.00
66430;BME280;53242;51.694;10.006;2023-11-19T01:18:58;98979.53;;;6.90;100.00
66430;BME280;53242;51.694;10.006;2023-11-19T01:21:20;98971.03;;;6.88;100.00
66430;BME280;53242;51.694;10.006;2023-11-19T01:23:44;98958.09;;;6.87;100.00
66430;BME280;53242;51.694;10.006;2023-11-19T01:26:08;98947.88;;;6.77;100.00
66430;BME280;53242;51.694;10.006;2023-11-19T01:28:32;98953.31;;;6.90;100.00
66430;BME280;53242;51.694;10.006;2023-11-19T01:30:54;98962.16;;;6.89;100.00
66430;BME280;53242;51.694;10.006;2023-11-19T01:33:17;98949.66;;;6.91;100.00
66430;BME280;53242;51.694;10.006;2023-11-19T01:35:39;98945.25;;;6.92;100.00
66430;BME280;53242;51.694;10.006;2023-11-19T01:38:02;98946.44;;;6.89;100.00
66430;BME280;53242;51.694;10.006;2023-11-19T01:40:24;98936.66;;;6.98;100.00
66430;BME280;53242;51.694;10.006;2023-11-19T01:42:47;98933.19;;;6.98;100.00
66430;BME280;53242;51.694;10.006;2023-11-19T01:45:21;98938.69;;;7.03;100.00
66430;BME280;53242;51.694;10.006;2023-11-19T01:47:43;98953.56;;;6.96;100.00
66430;BME280;53242;51.694;10.006;2023-11-19T01:50:07;98937.44;;;6.99;100.00
66430;BME280;53242;51.694;10.006;2023-11-19T01:52:30;98924.53;;;6.97;100.00
66430;BME280;53242;51.694;10.006;2023-11-19T01:54:53;98920.78;;;7.06;100.00
66430;BME280;53242;51.694;10.006;2023-11-19T01:57:16;98928.72;;;7.13;100.00
66430;BME280;53242;51.694;10.006;2023-11-19T01:59:39;98916.84;;;7.17;100.00
66430;BME280;53242;51.694;10.006;2023-11-19T02:02:01;98918.13;;;7.21;100.00
66430;BME280;53242;51.694;10.006;2023-11-19T02:04:24;98919.91;;;7.21;100.00
66430;BME280;53242;51.694;10.006;2023-11-19T02:06:48;98915.13;;;7.24;100.00
66430;BME280;53242;51.694;10.006;2023-11-19T02:09:13;98911.09;;;7.29;100.00
66430;BME280;53242;51.694;10.006;2023-11-19T02:11:35;98914.47;;;7.22;100.00
66430;BME280;53242;51.694;10.006;2023-11-19T02:13:58;98905.50;;;7.32;100.00
66430;BME280;53242;51.694;10.006;2023-11-19T02:16:20;98911.16;;;7.35;100.00
66430;BME280;53242;51.694;10.006;2023-11-19T02:18:42;98913.03;;;7.41;100.00
66430;BME280;53242;51.694;10.006;2023-11-19T02:21:05;98902.53;;;7.41;100.00
66430;BME280;53242;51.694;10.006;2023-11-19T02:23:28;98909.03;;;7.46;100.00
66430;BME280;53242;51.694;10.006;2023-11-19T02:26:03;98903.03;;;7.52;100.00
66430;BME280;53242;51.694;10.006;2023-11-19T02:28:28;98898.03;;;7.57;100.00
66430;BME280;53242;51.694;10.006;2023-11-19T02:30:50;98895.59;;;7.55;100.00
66430;BME280;53242;51.694;10.006;2023-11-19T02:33:13;98893.41;;;7.59;100.00
66430;BME280;53242;51.694;10.006;2023-11-19T02:35:35;98885.97;;;7.63;100.00
66430;BME280;53242;51.694;10.006;2023-11-19T02:37:58;98874.28;;;7.65;100.00
66430;BME280;53242;51.694;10.006;2023-11-19T02:40:25;98869.03;;;7.65;100.00
66430;BME280;53242;51.694;10.006;2023-11-19T02:42:48;98846.97;;;7.66;100.00
66430;BME280;53242;51.694;10.006;2023-11-19T02:45:10;98835.69;;;7.66;100.00
66430;BME280;53242;51.694;10.006;2023-11-19T02:47:36;98838.34;;;7.72;100.00
66430;BME280;53242;51.694;10.006;2023-11-19T02:49:59;98834.72;;;7.73;100.00
66430;BME280;53242;51.694;10.006;2023-11-19T02:52:22;98834.31;;;7.77;100.00
66430;BME280;53242;51.694;10.006;2023-11-19T02:54:44;98841.44;;;7.83;100.00
66430;BME280;53242;51.694;10.006;2023-11-19T02:57:07;98847.56;;;7.90;100.00
66430;BME280;53242;51.694;10.006;2023-11-19T02:59:31;98839.88;;;7.88;100.00
66430;BME280;53242;51.694;10.006;2023-11-19T03:02:01;98826.34;;;7.92;100.00
66430;BME280;53242;51.694;10.006;2023-11-19T03:04:23;98827.97;;;7.93;100.00
66430;BME280;53242;51.694;10.006;2023-11-19T03:06:46;98827.56;;;7.96;100.00
66430;BME280;53242;51.694;10.006;2023-11-19T03:09:09;98819.53;;;7.97;100.00
66430;BME280;53242;51.694;10.006;2023-11-19T03:11:32;98814.84;;;7.93;100.00
66430;BME280;53242;51.694;10.006;2023-11-19T03:13:55;98809.84;;;8.04;100.00
66430;BME280;53242;51.694;10.006;2023-11-19T03:16:17;98817.94;;;8.10;100.00
66430;BME280;53242;51.694;10.006;2023-11-19T03:18:40;98807.22;;;8.11;100.00
66430;BME280;53242;51.694;10.006;2023-11-19T03:21:02;98800.41;;;8.17;100.00
66430;BME280;53242;51.694;10.006;2023-11-19T03:23:25;98784.84;;;8.15;100.00
66430;BME280;53242;51.694;10.006;2023-11-19T03:25:50;98797.00;;;8.23;100.00
66430;BME280;53242;51.694;10.006;2023-11-19T03:28:12;98796.78;;;8.25;100.00
66430;BME280;53242;51.694;10.006;2023-11-19T03:30:35;98783.44;;;8.26;100.00
66430;BME280;53242;51.694;10.006;2023-11-19T03:32:57;98796.59;;;8.26;100.00
66430;BME280;53242;51.694;10.006;2023-11-19T03:35:20;98792.56;;;8.30;100.00
66430;BME280;53242;51.694;10.006;2023-11-19T03:37:43;98790.94;;;8.29;100.00
66430;BME280;53242;51.694;10.006;2023-11-19T03:40:06;98780.84;;;8.33;100.00
66430;BME280;53242;51.694;10.006;2023-11-19T03:42:29;98785.28;;;8.32;100.00
66430;BME280;53242;51.694;10.006;2023-11-19T03:44:55;98780.25;;;8.37;100.00
66430;BME280;53242;51.694;10.006;2023-11-19T03:47:18;98783.69;;;8.38;100.00
66430;BME280;53242;51.694;10.006;2023-11-19T03:49:40;98781.06;;;8.38;100.00
66430;BME280;53242;51.694;10.006;2023-11-19T03:52:03;98782.28;;;8.42;100.00
66430;BME280;53242;51.694;10.006;2023-11-19T03:54:25;98768.75;;;8.45;100.00
66430;BME280;53242;51.694;10.006;2023-11-19T03:56:49;98762.53;;;8.46;100.00
66430;BME280;53242;51.694;10.006;2023-11-19T03:59:12;98770.97;;;8.42;100.00
66430;BME280;53242;51.694;10.006;2023-11-19T04:01:34;98761.47;;;8.47;100.00
66430;BME280;53242;51.694;10.006;2023-11-19T04:03:57;98750.16;;;8.47;100.00
66430;BME280;53242;51.694;10.006;2023-11-19T04:06:20;98772.41;;;8.51;100.00
66430;BME280;53242;51.694;10.006;2023-11-19T04:08:43;98771.63;;;8.50;100.00
66430;BME280;53242;51.694;10.006;2023-11-19T04:11:06;98766.78;;;8.54;100.00
66430;BME280;53242;51.694;10.006;2023-11-19T04:13:28;98756.44;;;8.52;100.00
66430;BME280;53242;51.694;10.006;2023-11-19T04:15:50;98753.81;;;8.52;100.00
66430;BME280;53242;51.694;10.006;2023-11-19T04:18:13;98759.28;;;8.58;100.00
66430;BME280;53242;51.694;10.006;2023-11-19T04:20:36;98752.22;;;8.51;100.00
66430;BME280;53242;51.694;10.006;2023-11-19T04:22:59;98748.75;;;8.58;100.00
66430;BME280;53242;51.694;10.006;2023-11-19T04:25:23;98756.84;;;8.56;100.00
66430;BME280;53242;51.694;10.006;2023-11-19T04:27:49;98746.75;;;8.53;100.00
66430;BME280;53242;51.694;10.006;2023-11-19T04:30:11;98738.84;;;8.53;100.00
66430;BME280;53242;51.694;10.006;2023-11-19T04:32:34;98744.91;;;8.60;100.00
66430;BME280;53242;51.694;10.006;2023-11-19T04:34:56;98755.66;;;8.59;100.00
66430;BME280;53242;51.694;10.006;2023-11-19T04:37:19;98748.97;;;8.63;100.00
66430;BME280;53242;51.694;10.006;2023-11-19T04:39:44;98747.97;;;8.64;100.00
66430;BME280;53242;51.694;10.006;2023-11-19T04:42:06;98752.22;;;8.65;100.00
66430;BME280;53242;51.694;10.006;2023-11-19T04:44:29;98766.38;;;8.70;100.00
66430;BME280;53242;51.694;10.006;2023-11-19T04:46:51;98762.34;;;8.68;100.00
66430;BME280;53242;51.694;10.006;2023-11-19T04:49:14;98766.00;;;8.67;100.00
66430;BME280;53242;51.694;10.006;2023-11-19T04:51:44;98752.44;;;8.70;100.00
66430;BME280;53242;51.694;10.006;2023-11-19T04:54:09;98749.38;;;8.73;100.00
66430;BME280;53242;51.694;10.006;2023-11-19T04:56:32;98753.44;;;8.69;100.00
66430;BME280;53242;51.694;10.006;2023-11-19T04:58:54;98743.75;;;8.69;100.00
66430;BME280;53242;51.694;10.006;2023-11-19T05:01:17;98736.03;;;8.68;100.00
66430;BME280;53242;51.694;10.006;2023-11-19T05:03:39;98733.41;;;8.68;100.00
66430;BME280;53242;51.694;10.006;2023-11-19T05:06:02;98733.81;;;8.71;100.00
66430;BME280;53242;51.694;10.006;2023-11-19T05:08:25;98722.91;;;8.75;100.00
66430;BME280;53242;51.694;10.006;2023-11-19T05:10:47;98706.91;;;8.69;100.00
66430;BME280;53242;51.694;10.006;2023-11-19T05:13:10;98714.78;;;8.63;100.00
66430;BME280;53242;51.694;10.006;2023-11-19T05:15:32;98715.19;;;8.60;100.00
66430;BME280;53242;51.694;10.006;2023-11-19T05:17:55;98707.31;;;8.60;100.00
66430;BME280;53242;51.694;10.006;2023-11-19T05:20:18;98696.16;;;8.58;100.00
66430;BME280;53242;51.694;10.006;2023-11-19T05:22:41;98697.78;;;8.65;100.00
66430;BME280;53242;51.694;10.006;2023-11-19T05:25:03;98704.88;;;8.65;100.00
66430;BME280;53242;51.694;10.006;2023-11-19T05:27:27;98694.56;;;8.70;100.00
66430;BME280;53242;51.694;10.006;2023-11-19T05:29:50;98692.34;;;8.67;100.00
66430;BME280;53242;51.694;10.006;2023-11-19T05:32:13;98676.16;;;8.63;100.00
66430;BME280;53242;51.694;10.006;2023-11-19T05:34:35;98695.78;;;8.67;100.00
66430;BME280;53242;51.694;10.006;2023-11-19T05:36:58;98691.53;;;8.66;100.00
66430;BME280;53242;51.694;10.006;2023-11-19T05:39:20;98691.94;;;8.63;100.00
66430;BME280;53242;51.694;10.006;2023-11-19T05:41:43;98691.53;;;8.60;100.00
66430;BME280;53242;51.694;10.006;2023-11-19T05:44:05;98700.63;;;8.64;100.00
66430;BME280;53242;51.694;10.006;2023-11-19T05:46:28;98686.69;;;8.63;100.00
66430;BME280;53242;51.694;10.006;2023-11-19T05:48:51;98691.72;;;8.65;100.00
66430;BME280;53242;51.694;10.006;2023-11-19T05:51:13;98686.88;;;8.68;100.00
66430;BME280;53242;51.694;10.006;2023-11-19T05:53:37;98673.50;;;8.70;100.00
66430;BME280;53242;51.694;10.006;2023-11-19T05:55:59;98681.19;;;8.78;100.00
66430;BME280;53242;51.694;10.006;2023-11-19T05:58:26;98688.91;;;8.86;100.00
66430;BME280;53242;51.694;10.006;2023-11-19T06:00:50;98710.94;;;8.92;100.00
66430;BME280;53242;51.694;10.006;2023-11-19T06:03:13;98709.34;;;8.98;100.00
66430;BME280;53242;51.694;10.006;2023-11-19T06:05:35;98704.88;;;9.05;100.00
66430;BME280;53242;51.694;10.006;2023-11-19T06:07:58;98709.34;;;9.04;100.00
66430;BME280;53242;51.694;10.006;2023-11-19T06:10:20;98713.78;;;9.04;100.00
66430;BME280;53242;51.694;10.006;2023-11-19T06:12:44;98701.25;;;8.99;100.00
66430;BME280;53242;51.694;10.006;2023-11-19T06:15:08;98717.84;;;9.00;100.00
66430;BME280;53242;51.694;10.006;2023-11-19T06:17:31;98721.66;;;9.04;100.00
66430;BME280;53242;51.694;10.006;2023-11-19T06:19:53;98731.59;;;9.02;100.00
66430;BME280;53242;51.694;10.006;2023-11-19T06:22:16;98737.47;;;9.11;100.00
66430;BME280;53242;51.694;10.006;2023-11-19T06:24:38;98731.59;;;9.15;100.00
66430;BME280;53242;51.694;10.006;2023-11-19T06:27:00;98734.44;;;9.14;100.00
66430;BME280;53242;51.694;10.006;2023-11-19T06:29:23;98729.97;;;9.14;100.00
66430;BME280;53242;51.694;10.006;2023-11-19T06:31:45;98733.44;;;9.15;100.00
66430;BME280;53242;51.694;10.006;2023-11-19T06:34:10;98743.56;;;9.04;100.00
66430;BME280;53242;51.694;10.006;2023-11-19T06:36:33;98734.44;;;9.07;100.00
66430;BME280;53242;51.694;10.006;2023-11-19T06:38:56;98727.75;;;9.04;100.00
66430;BME280;53242;51.694;10.006;2023-11-19T06:41:18;98730.41;;;9.04;100.00
66430;BME280;53242;51.694;10.006;2023-11-19T06:43:40;98725.34;;;9.03;100.00
66430;BME280;53242;51.694;10.006;2023-11-19T06:46:03;98730.19;;;8.99;100.00
66430;BME280;53242;51.694;10.006;2023-11-19T06:48:28;98728.78;;;9.03;100.00
66430;BME280;53242;51.694;10.006;2023-11-19T06:50:50;98737.47;;;9.04;100.00
66430;BME280;53242;51.694;10.006;2023-11-19T06:53:12;98731.59;;;9.02;100.00
66430;BME280;53242;51.694;10.006;2023-11-19T06:55:35;98734.44;;;9.07;100.00
66430;BME280;53242;51.694;10.006;2023-11-19T06:57:59;98732.81;;;9.06;100.00
66430;BME280;53242;51.694;10.006;2023-11-19T07:00:23;98736.66;;;9.03;100.00
66430;BME280;53242;51.694;10.006;2023-11-19T07:02:45;98733.03;;;9.04;100.00
66430;BME280;53242;51.694;10.006;2023-11-19T07:05:08;98745.56;;;9.23;100.00
66430;BME280;53242;51.694;10.006;2023-11-19T07:07:31;98746.38;;;9.23;100.00
66430;BME280;53242;51.694;10.006;2023-11-19T07:09:54;98740.88;;;9.25;100.00
66430;BME280;53242;51.694;10.006;2023-11-19T07:12:17;98741.31;;;9.21;100.00
66430;BME280;53242;51.694;10.006;2023-11-19T07:14:39;98750.63;;;9.44;100.00
66430;BME280;53242;51.694;10.006;2023-11-19T07:17:02;98752.59;;;9.55;100.00
66430;BME280;53242;51.694;10.006;2023-11-19T07:19:24;98723.22;;;9.59;100.00
66430;BME280;53242;51.694;10.006;2023-11-19T07:21:47;98748.94;;;9.57;100.00
66430;BME280;53242;51.694;10.006;2023-11-19T07:24:10;98745.69;;;9.68;100.00
66430;BME280;53242;51.694;10.006;2023-11-19T07:26:32;98755.00;;;9.70;100.00
66430;BME280;53242;51.694;10.006;2023-11-19T07:28:55;98746.69;;;9.67;100.00
66430;BME280;53242;51.694;10.006;2023-11-19T07:31:18;98743.19;;;9.86;99.32
66430;BME280;53242;51.694;10.006;2023-11-19T07:33:43;98735.28;;;9.86;99.15
66430;BME280;53242;51.694;10.006;2023-11-19T07:36:06;98742.56;;;9.91;98.58
66430;BME280;53242;51.694;10.006;2023-11-19T07:38:29;98757.16;;;9.94;98.89
66430;BME280;53242;51.694;10.006;2023-11-19T07:40:52;98747.22;;;9.96;98.86
66430;BME280;53242;51.694;10.006;2023-11-19T07:43:14;98735.63;;;10.03;98.04
66430;BME280;53242;51.694;10.006;2023-11-19T07:45:36;98729.94;;;10.07;98.27
66430;BME280;53242;51.694;10.006;2023-11-19T07:47:59;98754.03;;;10.17;97.04
66430;BME280;53242;51.694;10.006;2023-11-19T07:50:23;98763.34;;;10.19;97.92
66430;BME280;53242;51.694;10.006;2023-11-19T07:52:47;98757.47;;;10.24;97.54
66430;BME280;53242;51.694;10.006;2023-11-19T07:55:09;98764.13;;;10.27;96.90
66430;BME280;53242;51.694;10.006;2023-11-19T07:57:32;98756.97;;;10.34;96.78
66430;BME280;53242;51.694;10.006;2023-11-19T07:59:54;98740.97;;;10.35;96.76
66430;BME280;53242;51.694;10.006;2023-11-19T08:02:17;98753.56;;;10.33;97.46
66430;BME280;53242;51.694;10.006;2023-11-19T08:04:40;98747.28;;;10.28;97.88
66430;BME280;53242;51.694;10.006;2023-11-19T08:07:07;98752.94;;;10.31;98.03
66430;BME280;53242;51.694;10.006;2023-11-19T08:09:29;98746.25;;;10.29;98.33
66430;BME280;53242;51.694;10.006;2023-11-19T08:11:51;98747.09;;;10.23;98.44
66430;BME280;53242;51.694;10.006;2023-11-19T08:14:14;98747.91;;;10.23;98.65
66430;BME280;53242;51.694;10.006;2023-11-19T08:16:36;98748.69;;;10.30;98.09
66430;BME280;53242;51.694;10.006;2023-11-19T08:19:01;98743.84;;;10.27;97.82
66430;BME280;53242;51.694;10.006;2023-11-19T08:21:23;98751.31;;;10.30;97.50
66430;BME280;53242;51.694;10.006;2023-11-19T08:23:46;98752.34;;;10.29;97.68
66430;BME280;53242;51.694;10.006;2023-11-19T08:26:08;98760.50;;;10.21;98.59
66430;BME280;53242;51.694;10.006;2023-11-19T08:28:31;98758.50;;;10.16;99.06
66430;BME280;53242;51.694;10.006;2023-11-19T08:30:56;98772.06;;;10.20;99.17
66430;BME280;53242;51.694;10.006;2023-11-19T08:33:18;98787.88;;;10.20;99.20
66430;BME280;53242;51.694;10.006;2023-11-19T08:35:41;98784.66;;;10.18;99.14
66430;BME280;53242;51.694;10.006;2023-11-19T08:38:03;98787.69;;;10.22;98.77
66430;BME280;53242;51.694;10.006;2023-11-19T08:40:26;98793.53;;;10.24;98.15
66430;BME280;53242;51.694;10.006;2023-11-19T08:42:48;98783.81;;;10.24;97.91
66430;BME280;53242;51.694;10.006;2023-11-19T08:45:11;98794.16;;;10.26;98.17
66430;BME280;53242;51.694;10.006;2023-11-19T08:47:33;98789.47;;;10.28;97.83
66430;BME280;53242;51.694;10.006;2023-11-19T08:49:56;98792.53;;;10.25;98.19
66430;BME280;53242;51.694;10.006;2023-11-19T08:52:19;98792.13;;;10.21;97.43
66430;BME280;53242;51.694;10.006;2023-11-19T08:54:44;98794.56;;;10.36;96.45
66430;BME280;53242;51.694;10.006;2023-11-19T08:57:06;98795.31;;;10.43;95.71
66430;BME280;53242;51.694;10.006;2023-11-19T08:59:31;98789.63;;;10.46;94.85
66430;BME280;53242;51.694;10.006;2023-11-19T09:01:53;98788.19;;;10.50;94.78
66430;BME280;53242;51.694;10.006;2023-11-19T09:04:15;98798.06;;;10.62;93.42
66430;BME280;53242;51.694;10.006;2023-11-19T09:06:38;98777.94;;;10.67;92.08
66430;BME280;53242;51.694;10.006;2023-11-19T09:09:00;98803.25;;;10.75;92.29
66430;BME280;53242;51.694;10.006;2023-11-19T09:11:24;98806.34;;;10.72;92.47
66430;BME280;53242;51.694;10.006;2023-11-19T09:13:47;98803.44;;;10.80;91.43
66430;BME280;53242;51.694;10.006;2023-11-19T09:16:11;98801.84;;;10.79;91.32
66430;BME280;53242;51.694;10.006;2023-11-19T09:18:34;98813.75;;;10.89;90.65
66430;BME280;53242;51.694;10.006;2023-11-19T09:20:57;98810.34;;;10.81;91.17
66430;BME280;53242;51.694;10.006;2023-11-19T09:23:20;98810.50;;;10.86;90.48
66430;BME280;53242;51.694;10.006;2023-11-19T09:25:42;98817.25;;;10.82;91.10
66430;BME280;53242;51.694;10.006;2023-11-19T09:28:05;98812.97;;;10.81;91.03
66430;BME280;53242;51.694;10.006;2023-11-19T09:30:27;98812.47;;;10.98;89.19
66430;BME280;53242;51.694;10.006;2023-11-19T09:32:49;98813.53;;;10.90;90.09
66430;BME280;53242;51.694;10.006;2023-11-19T09:35:12;98820.44;;;10.91;90.07
66430;BME280;53242;51.694;10.006;2023-11-19T09:37:36;98825.88;;;10.96;89.53
66430;BME280;53242;51.694;10.006;2023-11-19T09:39:59;98828.75;;;10.95;89.59
66430;BME280;53242;51.694;10.006;2023-11-19T09:42:23;98831.91;;;11.03;89.46
66430;BME280;53242;51.694;10.006;2023-11-19T09:44:47;98832.31;;;11.07;89.37
66430;BME280;53242;51.694;10.006;2023-11-19T09:47:11;98832.25;;;11.14;87.96
66430;BME280;53242;51.694;10.006;2023-11-19T09:49:35;98821.34;;;11.10;88.02
66430;BME280;53242;51.694;10.006;2023-11-19T09:51:58;98832.91;;;11.09;88.52
66430;BME280;53242;51.694;10.006;2023-11-19T09:54:20;98828.66;;;11.08;88.01
66430;BME280;53242;51.694;10.006;2023-11-19T09:56:43;98831.44;;;11.13;87.51
66430;BME280;53242;51.694;10.006;2023-11-19T09:59:06;98819.94;;;11.08;87.26
66430;BME280;53242;51.694;10.006;2023-11-19T10:01:28;98824.72;;;11.17;87.22
66430;BME280;53242;51.694;10.006;2023-11-19T10:03:55;98825.72;;;11.23;86.33
66430;BME280;53242;51.694;10.006;2023-11-19T10:06:17;98822.34;;;11.34;85.25
66430;BME280;53242;51.694;10.006;2023-11-19T10:08:41;98829.19;;;11.42;84.34
66430;BME280;53242;51.694;10.006;2023-11-19T10:11:04;98813.78;;;11.39;84.74
66430;BME280;53242;51.694;10.006;2023-11-19T10:13:28;98823.91;;;11.42;84.66
66430;BME280;53242;51.694;10.006;2023-11-19T10:15:51;98836.00;;;11.57;82.71
66430;BME280;53242;51.694;10.006;2023-11-19T10:18:15;98828.72;;;11.71;82.35
66430;BME280;53242;51.694;10.006;2023-11-19T10:20:38;98837.91;;;11.68;83.18
66430;BME280;53242;51.694;10.006;2023-11-19T10:23:03;98831.38;;;11.71;82.79
66430;BME280;53242;51.694;10.006;2023-11-19T10:25:29;98823.56;;;11.82;81.84
66430;BME280;53242;51.694;10.006;2023-11-19T10:27:51;98829.25;;;12.05;81.38
66430;BME280;53242;51.694;10.006;2023-11-19T10:30:18;98807.50;;;12.03;80.73
66430;BME280;53242;51.694;10.006;2023-11-19T10:32:42;98818.34;;;11.94;80.25
66430;BME280;53242;51.694;10.006;2023-11-19T10:35:05;98815.66;;;12.01;80.20
66430;BME280;53242;51.694;10.006;2023-11-19T10:37:29;98808.38;;;11.96;80.66
66430;BME280;53242;51.694;10.006;2023-11-19T10:39:55;98810.38;;;12.01;80.58
66430;BME280;53242;51.694;10.006;2023-11-19T10:42:17;98811.16;;;12.01;80.75
66430;BME280;53242;51.694;10.006;2023-11-19T10:44:39;98809.50;;;12.07;80.35
66430;BME280;53242;51.694;10.006;2023-11-19T10:47:05;98804.72;;;12.16;79.37
66430;BME280;53242;51.694;10.006;2023-11-19T10:49:28;98802.94;;;12.10;78.54
66430;BME280;53242;51.694;10.006;2023-11-19T10:51:50;98805.06;;;12.01;77.61
66430;BME280;53242;51.694;10.006;2023-11-19T10:54:15;98807.06;;;12.06;77.51
66430;BME280;53242;51.694;10.006;2023-11-19T10:56:41;98824.53;;;12.07;77.42
66430;BME280;53242;51.694;10.006;2023-11-19T10:59:06;98807.69;;;12.20;76.22
66430;BME280;53242;51.694;10.006;2023-11-19T11:01:37;98816.41;;;12.08;77.57
66430;BME280;53242;51.694;10.006;2023-11-19T11:04:03;98804.56;;;12.11;78.15
66430;BME280;53242;51.694;10.006;2023-11-19T11:06:27;98804.75;;;12.09;78.08
66430;BME280;53242;51.694;10.006;2023-11-19T11:08:50;98803.19;;;12.08;76.64
66430;BME280;53242;51.694;10.006;2023-11-19T11:11:15;98807.25;;;12.04;78.43
66430;BME280;53242;51.694;10.006;2023-11-19T11:13:44;98806.00;;;12.07;77.12
66430;BME280;53242;51.694;10.006;2023-11-19T11:16:07;98809.13;;;12.04;77.10
66430;BME280;53242;51.694;10.006;2023-11-19T11:18:30;98813.38;;;12.05;77.18
66430;BME280;53242;51.694;10.006;2023-11-19T11:21:00;98800.59;;;12.01;76.54
66430;BME280;53242;51.694;10.006;2023-11-19T11:29:48;98808.97;;;11.98;76.38
66430;BME280;53242;51.694;10.006;2023-11-19T11:35:31;98823.66;;;12.13;77.11
66430;BME280;53242;51.694;10.006;2023-11-19T11:38:04;98826.53;;;12.11;76.88
66430;BME280;53242;51.694;10.006;2023-11-19T11:40:26;98816.47;;;12.20;76.49
66430;BME280;53242;51.694;10.006;2023-11-19T11:42:49;98809.84;;;12.29;76.79
66430;BME280;53242;51.694;10.006;2023-11-19T11:45:14;98802.91;;;12.28;75.67
66430;BME280;53242;51.694;10.006;2023-11-19T11:50:07;98813.31;;;12.91;74.77
66430;BME280;53242;51.694;10.006;2023-11-19T11:52:30;98809.69;;;12.85;73.58
66430;BME280;53242;51.694;10.006;2023-11-19T11:54:53;98802.88;;;12.77;72.88
66430;BME280;53242;51.694;10.006;2023-11-19T11:57:16;98791.75;;;12.87;74.01
66430;BME280;53242;51.694;10.006;2023-11-19T11:59:50;98802.75;;;12.72;73.75
66430;BME280;53242;51.694;10.006;2023-11-19T12:02:15;98797.50;;;12.84;74.16
66430;BME280;53242;51.694;10.006;2023-11-19T12:04:39;98815.75;;;12.74;73.61
66430;BME280;53242;51.694;10.006;2023-11-19T12:07:11;98803.78;;;12.71;73.22
66430;BME280;53242;51.694;10.006;2023-11-19T12:09:34;98807.25;;;12.72;72.63
66430;BME280;53242;51.694;10.006;2023-11-19T12:19:56;98813.22;;;12.37;73.82
66430;BME280;53242;51.694;10.006;2023-11-19T12:22:19;98809.31;;;12.39;73.94
66430;BME280;53242;51.694;10.006;2023-11-19T12:24:41;98805.47;;;12.35;74.91
66430;BME280;53242;51.694;10.006;2023-11-19T12:27:03;98804.03;;;12.39;74.76
66430;BME280;53242;51.694;10.006;2023-11-19T12:29:26;98802.25;;;12.33;75.06
66430;BME280;53242;51.694;10.006;2023-11-19T12:31:54;98811.22;;;12.32;74.50
66430;BME280;53242;51.694;10.006;2023-11-19T12:34:16;98810.06;;;12.28;74.78
66430;BME280;53242;51.694;10.006;2023-11-19T12:36:39;98806.66;;;12.39;74.30
66430;BME280;53242;51.694;10.006;2023-11-19T12:39:01;98817.44;;;12.38;75.04
66430;BME280;53242;51.694;10.006;2023-11-19T12:41:24;98819.53;;;12.17;75.84
66430;BME280;53242;51.694;10.006;2023-11-19T12:43:46;98823.22;;;12.16;76.31
66430;BME280;53242;51.694;10.006;2023-11-19T12:46:22;98832.91;;;12.04;79.32
66430;BME280;53242;51.694;10.006;2023-11-19T12:48:45;98830.13;;;11.73;82.98